Wetterdaten: Woche 21.05.18 - 27.05.18 (KW21)
Datum Zeit Temperatur Luftfeuchte Luftdruck Niederschlag Windrichtung Sonnenschein Solar Wind
21.05.2018 00:00 12,7 C 96 % 1013,2 hPa 0,0 l/m O 0,00 h 0 W/m 6,3 km/h (2 Bft)
21.05.2018 01:00 11,9 C 95 % 1012,8 hPa 0,0 l/m N 0,00 h 0 W/m 0,9 km/h (0 Bft)
21.05.2018 02:00 11,0 C 97 % 1012,5 hPa 0,0 l/m N 0,00 h 0 W/m 0,1 km/h (0 Bft)
21.05.2018 03:00 10,6 C 98 % 1012,4 hPa 0,0 l/m O 0,00 h 0 W/m 0,7 km/h (0 Bft)
21.05.2018 04:00 9,7 C 98 % 1012,4 hPa 0,0 l/m N 0,00 h 0 W/m 0,0 km/h (0 Bft)
21.05.2018 05:00 9,0 C 98 % 1012,4 hPa 0,0 l/m N 0,08 h 9 W/m 0,0 km/h (0 Bft)
21.05.2018 06:00 9,1 C 98 % 1012,5 hPa 0,0 l/m N 0,17 h 57 W/m 0,0 km/h (0 Bft)
21.05.2018 07:00 10,8 C 96 % 1012,6 hPa 0,0 l/m N 0,92 h 212 W/m 0,0 km/h (0 Bft)
21.05.2018 08:00 12,9 C 89 % 1012,6 hPa 0,0 l/m N 1,00 h 397 W/m 0,0 km/h (0 Bft)
21.05.2018 09:00 15,2 C 82 % 1012,5 hPa 0,0 l/m N 0,75 h 429 W/m 0,1 km/h (0 Bft)
21.05.2018 10:00 17,3 C 76 % 1012,2 hPa 0,0 l/m N 0,92 h 637 W/m 0,5 km/h (0 Bft)
21.05.2018 11:00 19,5 C 69 % 1011,9 hPa 0,0 l/m O-SO 1,00 h 808 W/m 4,5 km/h (1 Bft)
21.05.2018 12:00 21,3 C 60 % 1011,5 hPa 0,0 l/m O-SO 1,00 h 867 W/m 6,8 km/h (2 Bft)
21.05.2018 13:00 22,6 C 55 % 1010,9 hPa 0,0 l/m O 1,00 h 887 W/m 6,4 km/h (2 Bft)
21.05.2018 14:00 23,5 C 48 % 1010,4 hPa 0,0 l/m O 1,00 h 868 W/m 9,3 km/h (2 Bft)
21.05.2018 15:00 24,0 C 46 % 1009,7 hPa 0,0 l/m W-SW 1,00 h 818 W/m 6,3 km/h (2 Bft)
21.05.2018 16:00 23,1 C 56 % 1009,3 hPa 0,4 l/m O 0,50 h 451 W/m 13,4 km/h (3 Bft)
21.05.2018 17:00 18,4 C 79 % 1009,1 hPa 0,2 l/m N-NO 0,00 h 168 W/m 6,7 km/h (2 Bft)
21.05.2018 18:00 18,3 C 75 % 1009,3 hPa 0,2 l/m O 0,17 h 188 W/m 12,1 km/h (2 Bft)
21.05.2018 19:00 16,8 C 78 % 1009,2 hPa 0,0 l/m O-NO 0,17 h 97 W/m 7,8 km/h (2 Bft)
21.05.2018 20:00 15,7 C 80 % 1009,4 hPa 0,0 l/m N-NO 0,08 h 27 W/m 5,5 km/h (1 Bft)
21.05.2018 21:00 14,5 C 83 % 1009,5 hPa 0,0 l/m N-NO 0,00 h 0 W/m 2,9 km/h (1 Bft)
21.05.2018 22:00 13,5 C 86 % 1009,4 hPa 0,0 l/m N 0,00 h 0 W/m 0,4 km/h (0 Bft)
21.05.2018 23:00 12,3 C 90 % 1009,4 hPa 0,0 l/m N 0,00 h 0 W/m 0,3 km/h (0 Bft)
22.05.2018 00:00 12,1 C 92 % 1009,3 hPa 0,0 l/m N 0,00 h 0 W/m 0,0 km/h (0 Bft)
22.05.2018 01:00 11,4 C 93 % 1009,1 hPa 0,0 l/m N 0,00 h 0 W/m 0,0 km/h (0 Bft)
22.05.2018 02:00 10,8 C 94 % 1008,7 hPa 0,0 l/m N 0,00 h 0 W/m 0,3 km/h (0 Bft)
22.05.2018 03:00 10,2 C 95 % 1009,0 hPa 0,0 l/m N 0,00 h 0 W/m 0,0 km/h (0 Bft)
22.05.2018 04:00 9,8 C 96 % 1008,8 hPa 0,0 l/m N 0,00 h 0 W/m 0,0 km/h (0 Bft)
22.05.2018 05:00 9,2 C 96 % 1009,0 hPa 0,0 l/m N 0,00 h 9 W/m 0,3 km/h (0 Bft)
22.05.2018 06:00 9,7 C 97 % 1009,3 hPa 0,0 l/m N 0,17 h 58 W/m 0,0 km/h (0 Bft)
22.05.2018 07:00 12,1 C 93 % 1009,5 hPa 0,0 l/m N 0,83 h 209 W/m 0,0 km/h (0 Bft)
22.05.2018 08:00 14,1 C 88 % 1009,7 hPa 0,0 l/m N 0,67 h 304 W/m 0,0 km/h (0 Bft)
22.05.2018 09:00 16,6 C 81 % 1009,7 hPa 0,0 l/m N 0,92 h 471 W/m 0,0 km/h (0 Bft)
22.05.2018 10:00 18,5 C 74 % 1009,5 hPa 0,0 l/m N 0,83 h 575 W/m 1,1 km/h (0 Bft)
22.05.2018 11:00 20,1 C 65 % 1009,3 hPa 0,0 l/m NO 1,00 h 691 W/m 2,1 km/h (1 Bft)
22.05.2018 12:00 21,5 C 63 % 1009,2 hPa 0,0 l/m O 1,00 h 718 W/m 7,0 km/h (2 Bft)
22.05.2018 13:00 22,7 C 57 % 1008,8 hPa 0,0 l/m O 0,58 h 657 W/m 11,1 km/h (2 Bft)
22.05.2018 14:00 23,2 C 50 % 1008,6 hPa 0,0 l/m O-SO 0,50 h 492 W/m 11,4 km/h (2 Bft)
22.05.2018 15:00 22,4 C 55 % 1008,4 hPa 0,0 l/m O-SO 0,42 h 394 W/m 9,0 km/h (2 Bft)
22.05.2018 16:00 22,5 C 56 % 1008,3 hPa 0,0 l/m SW 1,00 h 539 W/m 11,3 km/h (2 Bft)
22.05.2018 17:00 19,7 C 67 % 1008,7 hPa 0,2 l/m O-SO 0,25 h 210 W/m 16,6 km/h (3 Bft)
22.05.2018 18:00 17,1 C 79 % 1009,0 hPa 0,0 l/m N-NW 0,00 h 139 W/m 10,2 km/h (2 Bft)
22.05.2018 19:00 15,9 C 81 % 1009,4 hPa 0,0 l/m N-NW 0,00 h 74 W/m 17,0 km/h (3 Bft)
22.05.2018 20:00 15,0 C 85 % 1010,2 hPa 0,0 l/m N-NO 0,08 h 24 W/m 10,2 km/h (2 Bft)
22.05.2018 21:00 14,0 C 86 % 1010,4 hPa 0,0 l/m N-NO 0,00 h 0 W/m 6,7 km/h (2 Bft)
22.05.2018 22:00 13,0 C 90 % 1011,2 hPa 0,0 l/m N 0,00 h 0 W/m 0,5 km/h (0 Bft)
22.05.2018 23:00 12,7 C 94 % 1011,7 hPa 0,0 l/m N 0,00 h 0 W/m 0,0 km/h (0 Bft)
23.05.2018 00:00 12,8 C 94 % 1011,9 hPa 0,0 l/m N 0,00 h 0 W/m 0,0 km/h (0 Bft)
23.05.2018 01:00 12,3 C 95 % 1012,2 hPa 0,0 l/m N 0,00 h 0 W/m 1,1 km/h (0 Bft)
23.05.2018 02:00 12,7 C 95 % 1012,4 hPa 0,0 l/m N 0,00 h 0 W/m 1,2 km/h (1 Bft)
23.05.2018 03:00 12,4 C 95 % 1012,3 hPa 0,0 l/m N 0,00 h 0 W/m 0,7 km/h (0 Bft)
23.05.2018 04:00 12,1 C 96 % 1012,6 hPa 0,0 l/m N-NO 0,00 h 0 W/m 0,9 km/h (0 Bft)
23.05.2018 05:00 12,2 C 97 % 1012,8 hPa 0,0 l/m N-NO 0,00 h 6 W/m 1,6 km/h (1 Bft)
23.05.2018 06:00 12,5 C 97 % 1013,1 hPa 0,2 l/m N 0,00 h 31 W/m 2,9 km/h (1 Bft)
23.05.2018 07:00 13,4 C 97 % 1013,6 hPa 0,0 l/m N 0,08 h 139 W/m 0,0 km/h (0 Bft)
23.05.2018 08:00 15,2 C 92 % 1014,1 hPa 0,0 l/m N 0,58 h 268 W/m 0,5 km/h (0 Bft)
23.05.2018 09:00 16,2 C 84 % 1014,7 hPa 0,0 l/m W-NW 0,08 h 285 W/m 5,8 km/h (2 Bft)
23.05.2018 10:00 16,5 C 83 % 1014,9 hPa 0,0 l/m W-SW 0,00 h 300 W/m 7,0 km/h (2 Bft)
23.05.2018 11:00 17,8 C 79 % 1014,9 hPa 0,0 l/m W-SW 0,50 h 454 W/m 3,6 km/h (1 Bft)
23.05.2018 12:00 18,6 C 76 % 1014,8 hPa 0,0 l/m W 0,33 h 474 W/m 6,8 km/h (2 Bft)
23.05.2018 13:00 20,1 C 72 % 1014,4 hPa 0,0 l/m NO 0,50 h 670 W/m 11,2 km/h (2 Bft)
23.05.2018 14:00 20,7 C 67 % 1014,2 hPa 0,0 l/m NO 0,50 h 675 W/m 10,3 km/h (2 Bft)
23.05.2018 15:00 22,3 C 61 % 1013,7 hPa 0,0 l/m O-NO 0,75 h 683 W/m 10,6 km/h (2 Bft)
23.05.2018 16:00 22,6 C 58 % 1013,2 hPa 0,0 l/m NO 0,50 h 400 W/m 9,0 km/h (2 Bft)
23.05.2018 17:00 23,1 C 57 % 1012,9 hPa 0,0 l/m NO 0,83 h 505 W/m 10,7 km/h (2 Bft)
23.05.2018 18:00 22,3 C 58 % 1012,8 hPa 0,0 l/m O 0,08 h 110 W/m 9,4 km/h (2 Bft)
23.05.2018 19:00 20,7 C 65 % 1013,0 hPa 0,0 l/m O 0,00 h 49 W/m 4,1 km/h (1 Bft)
23.05.2018 20:00 18,7 C 75 % 1013,7 hPa 0,0 l/m NO 0,00 h 9 W/m 7,4 km/h (2 Bft)
23.05.2018 21:00 17,3 C 80 % 1014,2 hPa 0,0 l/m O-SO 0,00 h 0 W/m 7,0 km/h (2 Bft)
23.05.2018 22:00 16,4 C 84 % 1014,7 hPa 0,0 l/m N-NO 0,00 h 0 W/m 8,7 km/h (2 Bft)
23.05.2018 23:00 15,4 C 89 % 1014,5 hPa 0,0 l/m N 0,00 h 0 W/m 0,4 km/h (0 Bft)
24.05.2018 00:00 14,9 C 89 % 1014,4 hPa 0,0 l/m N-NO 0,00 h 0 W/m 3,5 km/h (1 Bft)
24.05.2018 01:00 14,0 C 91 % 1014,8 hPa 0,0 l/m N 0,00 h 0 W/m 0,0 km/h (0 Bft)
24.05.2018 02:00 13,6 C 93 % 1015,1 hPa 0,0 l/m N 0,00 h 0 W/m 0,0 km/h (0 Bft)
24.05.2018 03:00 13,9 C 92 % 1014,8 hPa 0,0 l/m N 0,00 h 0 W/m 0,0 km/h (0 Bft)
24.05.2018 04:00 13,7 C 94 % 1014,4 hPa 0,0 l/m N-NO 0,00 h 0 W/m 0,5 km/h (0 Bft)
24.05.2018 05:00 13,6 C 96 % 1014,8 hPa 0,0 l/m N-NO 0,00 h 9 W/m 0,7 km/h (0 Bft)
24.05.2018 06:00 14,0 C 98 % 1014,9 hPa 0,0 l/m W-SW 0,08 h 57 W/m 10,4 km/h (2 Bft)
24.05.2018 07:00 15,0 C 97 % 1015,0 hPa 0,0 l/m SW 0,50 h 155 W/m 10,9 km/h (2 Bft)
24.05.2018 08:00 15,4 C 94 % 1015,5 hPa 0,0 l/m SW 0,00 h 131 W/m 7,1 km/h (2 Bft)
24.05.2018 09:00 16,9 C 87 % 1015,6 hPa 0,0 l/m SW 0,58 h 497 W/m 4,3 km/h (1 Bft)
24.05.2018 10:00 18,1 C 80 % 1015,4 hPa 0,0 l/m N 0,08 h 273 W/m 1,7 km/h (1 Bft)
24.05.2018 11:00 18,8 C 76 % 1015,4 hPa 0,0 l/m SW 0,17 h 415 W/m 0,4 km/h (0 Bft)
24.05.2018 12:00 19,8 C 74 % 1015,1 hPa 0,0 l/m SW 0,42 h 633 W/m 9,3 km/h (2 Bft)
24.05.2018 13:00 20,1 C 71 % 1014,4 hPa 0,0 l/m SW 0,08 h 403 W/m 5,0 km/h (1 Bft)
24.05.2018 14:00 21,5 C 65 % 1013,9 hPa 0,0 l/m SW 0,50 h 609 W/m 8,3 km/h (2 Bft)
24.05.2018 15:00 22,7 C 62 % 1013,6 hPa 0,0 l/m S-SW 0,75 h 713 W/m 10,9 km/h (2 Bft)
24.05.2018 16:00 23,5 C 58 % 1013,1 hPa 0,0 l/m SW 0,92 h 713 W/m 12,4 km/h (3 Bft)
24.05.2018 17:00 22,0 C 61 % 1013,0 hPa 0,0 l/m W-SW 0,25 h 260 W/m 9,7 km/h (2 Bft)
24.05.2018 18:00 20,5 C 69 % 1013,2 hPa 0,0 l/m N-NO 0,33 h 160 W/m 16,4 km/h (3 Bft)
24.05.2018 19:00 18,7 C 71 % 1014,0 hPa 0,0 l/m O-NO 0,00 h 43 W/m 11,5 km/h (2 Bft)
24.05.2018 20:00 17,0 C 78 % 1014,5 hPa 0,0 l/m NO 0,00 h 21 W/m 6,8 km/h (2 Bft)
24.05.2018 21:00 15,5 C 88 % 1014,8 hPa 0,0 l/m N 0,00 h 5 W/m 3,1 km/h (1 Bft)
24.05.2018 22:00 14,0 C 93 % 1015,2 hPa 0,0 l/m N 0,00 h 0 W/m 4,2 km/h (1 Bft)
24.05.2018 23:00 13,4 C 94 % 1015,0 hPa 0,0 l/m N 0,00 h 0 W/m 0,1 km/h (0 Bft)
25.05.2018 00:00 12,8 C 95 % 1015,2 hPa 0,0 l/m N 0,00 h 0 W/m 0,0 km/h (0 Bft)
25.05.2018 01:00 12,3 C 96 % 1015,3 hPa 0,0 l/m N 0,00 h 0 W/m 0,0 km/h (0 Bft)
25.05.2018 02:00 11,6 C 97 % 1015,5 hPa 0,0 l/m N 0,00 h 0 W/m 0,0 km/h (0 Bft)
25.05.2018 03:00 11,0 C 97 % 1015,4 hPa 0,0 l/m N 0,00 h 0 W/m 0,0 km/h (0 Bft)
25.05.2018 04:00 10,6 C 98 % 1015,3 hPa 0,0 l/m N 0,00 h 0 W/m 0,0 km/h (0 Bft)
25.05.2018 05:00 10,1 C 98 % 1015,3 hPa 0,0 l/m N 0,08 h 10 W/m 0,0 km/h (0 Bft)
25.05.2018 06:00 10,2 C 98 % 1015,4 hPa 0,0 l/m N 0,08 h 53 W/m 0,0 km/h (0 Bft)
25.05.2018 07:00 12,3 C 96 % 1015,4 hPa 0,0 l/m N 0,92 h 216 W/m 0,0 km/h (0 Bft)
25.05.2018 08:00 15,4 C 90 % 1015,6 hPa 0,0 l/m N 1,00 h 399 W/m 0,0 km/h (0 Bft)
25.05.2018 09:00 18,2 C 82 % 1015,5 hPa 0,0 l/m N 0,83 h 461 W/m 0,0 km/h (0 Bft)
25.05.2018 10:00 20,4 C 72 % 1015,4 hPa 0,0 l/m N 0,83 h 593 W/m 5,8 km/h (1 Bft)
25.05.2018 11:00 22,1 C 66 % 1015,3 hPa 0,0 l/m O-NO 1,00 h 884 W/m 10,5 km/h (2 Bft)
25.05.2018 12:00 23,5 C 56 % 1015,1 hPa 0,0 l/m O 0,92 h 916 W/m 11,1 km/h (2 Bft)
25.05.2018 13:00 24,2 C 53 % 1015,0 hPa 0,0 l/m NO 1,00 h 998 W/m 10,7 km/h (2 Bft)
25.05.2018 14:00 25,0 C 48 % 1014,6 hPa 0,0 l/m S-SO 1,00 h 880 W/m 8,2 km/h (2 Bft)
25.05.2018 15:00 25,7 C 44 % 1014,4 hPa 0,0 l/m S-SW 1,00 h 826 W/m 7,9 km/h (2 Bft)
25.05.2018 16:00 24,9 C 46 % 1014,3 hPa 0,0 l/m O-NO 0,42 h 429 W/m 8,4 km/h (2 Bft)
25.05.2018 17:00 25,4 C 45 % 1014,1 hPa 0,0 l/m O-NO 0,75 h 436 W/m 10,5 km/h (2 Bft)
25.05.2018 18:00 24,9 C 46 % 1014,0 hPa 0,0 l/m O-NO 0,58 h 214 W/m 9,5 km/h (2 Bft)
25.05.2018 19:00 23,6 C 51 % 1014,2 hPa 0,0 l/m NO 0,25 h 85 W/m 11,7 km/h (2 Bft)
25.05.2018 20:00 21,7 C 60 % 1014,5 hPa 0,0 l/m O-NO 0,08 h 30 W/m 8,7 km/h (2 Bft)
25.05.2018 21:00 19,4 C 70 % 1015,0 hPa 0,0 l/m N 0,00 h 5 W/m 1,2 km/h (1 Bft)
25.05.2018 22:00 17,8 C 74 % 1015,5 hPa 0,0 l/m O-NO 0,00 h 0 W/m 2,7 km/h (1 Bft)
25.05.2018 23:00 16,6 C 81 % 1015,5 hPa 0,0 l/m N 0,00 h 0 W/m 0,0 km/h (0 Bft)
26.05.2018 00:00 15,3 C 88 % 1015,5 hPa 0,0 l/m N 0,00 h 0 W/m 0,0 km/h (0 Bft)
26.05.2018 01:00 14,5 C 92 % 1015,3 hPa 0,0 l/m N 0,00 h 0 W/m 0,4 km/h (0 Bft)
26.05.2018 02:00 14,1 C 93 % 1015,3 hPa 0,0 l/m O-NO 0,00 h 0 W/m 3,9 km/h (1 Bft)
26.05.2018 03:00 13,7 C 94 % 1015,4 hPa 0,0 l/m NO 0,00 h 0 W/m 3,6 km/h (1 Bft)
26.05.2018 04:00 13,2 C 96 % 1015,3 hPa 0,0 l/m N 0,00 h 0 W/m 0,4 km/h (0 Bft)
26.05.2018 05:00 12,7 C 97 % 1015,4 hPa 0,0 l/m NO 0,08 h 10 W/m 2,0 km/h (1 Bft)
26.05.2018 06:00 12,9 C 98 % 1015,8 hPa 0,0 l/m N 0,17 h 66 W/m 0,7 km/h (0 Bft)
26.05.2018 07:00 14,5 C 96 % 1016,1 hPa 0,0 l/m NO 1,00 h 253 W/m 7,0 km/h (2 Bft)
26.05.2018 08:00 16,2 C 90 % 1016,3 hPa 0,0 l/m NO 0,75 h 302 W/m 5,8 km/h (1 Bft)
26.05.2018 09:00 18,2 C 84 % 1016,3 hPa 0,0 l/m NO 0,83 h 440 W/m 8,6 km/h (2 Bft)
26.05.2018 10:00 21,0 C 75 % 1016,1 hPa 0,0 l/m NO 0,92 h 623 W/m 9,5 km/h (2 Bft)
26.05.2018 11:00 23,4 C 63 % 1016,2 hPa 0,0 l/m O-NO 1,00 h 738 W/m 14,0 km/h (3 Bft)
26.05.2018 12:00 24,9 C 54 % 1016,3 hPa 0,0 l/m O 1,00 h 836 W/m 14,8 km/h (3 Bft)
26.05.2018 13:00 26,2 C 47 % 1016,4 hPa 0,0 l/m O-SO 1,00 h 879 W/m 13,3 km/h (3 Bft)
26.05.2018 14:00 27,1 C 44 % 1016,3 hPa 0,0 l/m O 1,00 h 849 W/m 12,2 km/h (2 Bft)
26.05.2018 15:00 27,4 C 44 % 1016,0 hPa 0,0 l/m O-NO 1,00 h 771 W/m 11,4 km/h (2 Bft)
26.05.2018 16:00 27,1 C 48 % 1015,9 hPa 0,0 l/m O-NO 0,33 h 366 W/m 12,4 km/h (3 Bft)
26.05.2018 17:00 25,2 C 54 % 1015,9 hPa 0,0 l/m NO 0,00 h 186 W/m 12,8 km/h (3 Bft)
26.05.2018 18:00 24,4 C 58 % 1015,7 hPa 0,0 l/m NO 0,33 h 210 W/m 10,5 km/h (2 Bft)
26.05.2018 19:00 24,0 C 61 % 1016,0 hPa 0,0 l/m NO 0,50 h 151 W/m 10,2 km/h (2 Bft)
26.05.2018 20:00 22,4 C 67 % 1016,3 hPa 0,0 l/m O-NO 0,25 h 38 W/m 6,4 km/h (2 Bft)
26.05.2018 21:00 20,2 C 74 % 1016,8 hPa 0,0 l/m N 0,00 h 6 W/m 1,2 km/h (1 Bft)
26.05.2018 22:00 18,2 C 81 % 1017,1 hPa 0,0 l/m N 0,00 h 0 W/m 0,1 km/h (0 Bft)
26.05.2018 23:00 17,0 C 85 % 1017,4 hPa 0,0 l/m N 0,00 h 0 W/m 0,0 km/h (0 Bft)
27.05.2018 00:00 16,4 C 87 % 1017,4 hPa 0,0 l/m N 0,00 h 0 W/m 0,0 km/h (0 Bft)
27.05.2018 01:00 16,4 C 86 % 1017,0 hPa 0,0 l/m O-NO 0,00 h 0 W/m 2,0 km/h (1 Bft)
27.05.2018 02:00 16,0 C 87 % 1016,3 hPa 0,0 l/m N 0,00 h 0 W/m 0,0 km/h (0 Bft)
27.05.2018 03:00 15,3 C 90 % 1015,6 hPa 0,0 l/m N 0,00 h 0 W/m 0,0 km/h (0 Bft)
27.05.2018 04:00 15,0 C 91 % 1015,3 hPa 0,0 l/m N 0,00 h 0 W/m 0,0 km/h (0 Bft)
27.05.2018 05:00 14,9 C 92 % 1015,0 hPa 0,0 l/m N 0,25 h 20 W/m 0,0 km/h (0 Bft)
27.05.2018 06:00 15,7 C 90 % 1014,8 hPa 0,0 l/m N 1,00 h 131 W/m 0,0 km/h (0 Bft)
27.05.2018 07:00 17,9 C 80 % 1014,8 hPa 0,0 l/m N 0,50 h 167 W/m 0,0 km/h (0 Bft)
27.05.2018 08:00 18,9 C 78 % 1015,3 hPa 0,0 l/m O-NO 0,00 h 163 W/m 0,9 km/h (0 Bft)
27.05.2018 09:00 19,3 C 83 % 1015,5 hPa 0,0 l/m N 0,00 h 284 W/m 1,7 km/h (1 Bft)
27.05.2018 10:00 21,4 C 71 % 1015,7 hPa 0,0 l/m O-NO 1,00 h 545 W/m 2,4 km/h (1 Bft)
27.05.2018 11:00 23,0 C 64 % 1016,1 hPa 0,0 l/m O-NO 1,00 h 663 W/m 2,1 km/h (1 Bft)
27.05.2018 12:00 24,7 C 56 % 1015,8 hPa 0,0 l/m O-SO 1,00 h 788 W/m 7,5 km/h (2 Bft)
27.05.2018 13:00 25,8 C 51 % 1015,1 hPa 0,0 l/m O-SO 1,00 h 811 W/m 7,2 km/h (2 Bft)
27.05.2018 14:00 27,0 C 49 % 1014,4 hPa 0,0 l/m O 1,00 h 777 W/m 9,7 km/h (2 Bft)
27.05.2018 15:00 26,1 C 49 % 1014,1 hPa 0,0 l/m O 0,25 h 312 W/m 9,7 km/h (2 Bft)
27.05.2018 16:00 24,6 C 57 % 1014,0 hPa 0,0 l/m NO 0,00 h 132 W/m 8,6 km/h (2 Bft)
27.05.2018 17:00 24,5 C 58 % 1013,2 hPa 0,0 l/m NO 0,50 h 301 W/m 7,5 km/h (2 Bft)
27.05.2018 18:00 25,2 C 54 % 1012,9 hPa 0,0 l/m NO 1,00 h 296 W/m 13,7 km/h (3 Bft)
27.05.2018 19:00 24,6 C 57 % 1012,8 hPa 0,0 l/m NO 1,00 h 162 W/m 12,5 km/h (3 Bft)
27.05.2018 20:00 23,2 C 63 % 1012,7 hPa 0,0 l/m O-NO 0,08 h 36 W/m 7,2 km/h (2 Bft)
27.05.2018 21:00 20,8 C 73 % 1013,2 hPa 0,0 l/m N 0,00 h 6 W/m 0,7 km/h (0 Bft)
27.05.2018 22:00 18,7 C 79 % 1013,5 hPa 0,0 l/m N 0,00 h 0 W/m 1,2 km/h (1 Bft)
27.05.2018 23:00 17,9 C 82 % 1013,5 hPa 0,0 l/m O-NO 0,00 h 0 W/m 0,8 km/h (0 Bft)
Min-Datum _ 21.05.18 25.05.18 22.05.18 - - - - 21.05.18
_ Min-Zeit 05:55 15:55 15:40 - - - - 01:00
Minimum _ 8,8 C 39 % 1008,2 hPa - - - - 0,0 km/h (0 Bft)
Max-Datum _ 26.05.18 23.05.18 26.05.18 21.05.18 - 21.05.18 23.05.18 22.05.18
_ Max-Zeit 16:15 06:30 23:30 16:45 - 05:50 14:05 16:45
Maximum _ 28,1 C 100 % 1017,6 hPa 0,4 l/m - 0,08 h 1183 W/m 29,0 km/h
SW (5 Bft)
Durchschnitt _ 17,7 C 78 % 1013,5 hPa #1,2 l/m NO #57:55 h 365 W/m 4,9 km/h (1 Bft)